• Join FlightAware (Why Join?)
  • Login
  • US Flag 
03:01AM EST


 

Airport Tracker/Info


-or-


 

Live Flight TrackerFlight Track Log ✈ UAL4236 ✈ 06-Apr-2013 ✈ KIAH - KELP

Flight Track Log - Related Links

Times and Time Zones

All times are in EDT time to prevent confusion due to time zone crossing. See the UAL4236 flight status page for this flight to view local times or setup timezone preferences in your user account.

Time Position Orientation Groundspeed Altitude Reporting Facility
EDT Latitude Longitude Course Direction KTS MPH feet Rate Location/Type
10:10AM 29.9639 -95.3433 276° West 149 171 600  Level Houston Center
10:11AM 29.9289 -95.3764 219° Southwest 200 230 2,400 1,560 Climbing Houston Center
10:12AM 29.9114 -95.4069 237° Southwest 211 243 3,300 1,620 Climbing Houston Center
10:12AM 29.8889 -95.4417 233° Southwest 248 285 4,100 2,220 Climbing Houston Center
10:13AM 29.8650 -95.4792 234° Southwest 232 267 5,600 2,220 Climbing Houston Center
10:13AM 29.8483 -95.5042 232° Southwest 252 290 6,400 2,220 Climbing Houston Center
10:14AM 30.0312 -95.7804 277° West  Level FlightAware Approximate
10:14AM 29.8594 -95.5522 285° West 259 298 7,900  Level Houston Center
10:14AM 29.8781 -95.5778 310° West 267 307 8,900 2,220 Climbing Houston Center
10:15AM 30.0411 -95.8929 276° West  Level FlightAware Approximate
10:15AM 29.8986 -95.6244 297° West 263 303 10,200  Level Houston Center
10:16AM 29.9311 -95.7092 294° West 282 325 10,800 780 Climbing Houston Center
10:17AM 29.9694 -95.8067 294° West 326 375 11,900 1,140 Climbing Houston Center
10:18AM 30.0078 -95.9042 294° West 335 386 13,200 1,320 Climbing Houston Center
10:19AM 30.0514 -96.0250 293° West 341 392 14,700 1,200 Climbing Houston Center
10:21AM 30.0922 -96.2344 283° West 347 399 17,000 1,080 Climbing Houston Center
10:22AM 30.1150 -96.3450 283° West 354 407 18,100 1,080 Climbing Houston Center
10:23AM 30.1406 -96.4783 283° West 364 419 19,300 1,020 Climbing Houston Center
10:24AM 30.1639 -96.5958 283° West 372 428 20,300 960 Climbing Houston Center
10:25AM 30.1883 -96.7158 283° West 377 434 21,300 1,020 Climbing Houston Center
10:26AM 30.2108 -96.8392 282° West 385 443 22,400 1,140 Climbing Houston Center
10:27AM 30.2350 -96.9600 283° West 382 440 23,700 1,500 Climbing Houston Center
10:28AM 30.2575 -97.0758 283° West 369 425 25,500 1,440 Climbing Houston Center
10:29AM 30.2789 -97.1894 282° West 359 413 26,700 1,200 Climbing Houston Center
10:30AM 30.3000 -97.3003 282° West 351 404 28,000 1,260 Climbing Houston Center
10:31AM 30.3211 -97.4094 283° West 344 396 29,300 1,200 Climbing Houston Center
10:32AM 30.3419 -97.5194 282° West 346 398 30,500 1,320 Climbing Houston Center
10:33AM 30.3650 -97.6461 282° West 342 394 32,100 1,320 Climbing Houston Center
10:34AM 30.3867 -97.7544 283° West 342 394 33,300 900 Climbing Houston Center
10:35AM 30.4067 -97.8650 282° West 346 398 34,000 300 Climbing Houston Center
10:36AM 30.4281 -97.9819 282° West 364 419 34,000  Level Houston Center
10:37AM 30.4500 -98.1067 282° West 385 443 34,000  Level Houston Center
10:39AM 30.4758 -98.2392 283° West 410 472 34,000  Level Houston Center
10:40AM 30.4994 -98.3708 282° West 413 475 34,000  Level Houston Center
10:41AM 30.5242 -98.5033 282° West 415 478 34,000  Level Houston Center
10:42AM 30.5472 -98.6342 282° West 412 474 34,000  Level Houston Center
10:43AM 30.5708 -98.7658 282° West 412 474 34,000  Level Houston Center
10:44AM 30.5992 -98.9181 282° West 409 471 34,000  Level Houston Center
10:45AM 30.6225 -99.0469 282° West 405 466 34,000 -180 Level Houston Center
10:46AM 30.6428 -99.1642 281° West 402 463 33,700 -480 Descending Houston Center
10:47AM 30.6644 -99.2892 281° West 399 459 33,100 -600 Descending Houston Center
10:48AM 30.6869 -99.4175 282° West 405 466 32,500 -540 Descending Houston Center
10:49AM 30.7131 -99.5722 281° West 409 471 32,000 -300 Descending Houston Center
10:50AM 30.7356 -99.7017 281° West 413 475 32,000  Level Houston Center
10:51AM 30.7556 -99.8278 280° West 392 451 32,000  Level Houston Center
10:52AM 30.7783 -99.9558 282° West 404 465 32,000  Level Houston Center
10:53AM 30.7992 -100.0839 281° West 402 463 32,000  Level Houston Center
10:54AM 30.8261 -100.2367 282° West 389 448 32,000  Level Houston Center
10:55AM 30.8472 -100.3650 281° West 396 456 32,000  Level Houston Center
10:56AM 30.8686 -100.4936 281° West 397 457 32,000  Level Houston Center
10:57AM 30.8889 -100.6250 280° West 412 474 32,000  Level Houston Center
10:58AM 30.9103 -100.7522 281° West 408 470 32,000  Level Houston Center
10:59AM 30.9308 -100.8825 280° West 408 470 32,000  Level Houston Center
11:00AM 30.9556 -101.0344 281° West 407 468 32,000  Level Houston Center
11:01AM 30.9756 -101.1614 280° West 402 463 32,000  Level Houston Center
11:02AM 30.9958 -101.2889 281° West 402 463 32,000  Level Houston Center
11:03AM 31.0147 -101.4131 280° West 393 452 32,000  Level Houston Center
11:04AM 31.0342 -101.5422 280° West 398 458 32,000  Level Houston Center
11:05AM 31.0550 -101.6719 281° West 403 464 32,000  Level Houston Center
11:06AM 31.0742 -101.8003 280° West 404 465 32,000  Level Houston Center
11:07AM 31.0983 -101.9550 280° West 407 468 32,000  Level Houston Center
11:08AM 31.1183 -102.0850 280° West 404 465 32,000  Level Houston Center
11:09AM 31.1383 -102.2153 280° West 413 475 32,000  Level Houston Center
11:10AM 31.1558 -102.3478 279° West 413 475 32,000  Level Houston Center
11:11AM 31.1756 -102.4808 280° West 419 482 32,000  Level Houston Center
11:13AM 31.1958 -102.6108 280° West 407 468 32,000  Level Houston Center
11:14AM 31.2144 -102.7383 280° West 401 461 32,000  Level Houston Center
11:15AM 31.2353 -102.8692 281° West 406 467 32,000  Level Houston Center
11:16AM 31.2536 -102.9992 279° West 406 467 32,000  Level Houston Center
11:17AM 31.2764 -103.1553 280° West 406 467 32,000  Level Houston Center
11:18AM 31.2958 -103.2847 280° West 405 466 32,000 -60 Level Houston Center
11:19AM 31.3144 -103.4394 278° West 403 464 31,900 -420 Descending Albuquerque Center
11:20AM 31.3311 -103.5689 279° West 403 464 31,100 -780 Descending Albuquerque Center
11:21AM 31.3494 -103.6972 280° West 400 460 30,300 -540 Descending Albuquerque Center
11:22AM 31.3675 -103.8292 279° West 399 459 30,000 -180 Descending Albuquerque Center
11:23AM 31.3858 -103.9594 279° West 404 465 30,000  Level Albuquerque Center
11:24AM 31.4047 -104.0922 279° West 412 474 30,000  Level Albuquerque Center
11:25AM 31.4267 -104.2511 279° West 415 478 30,000  Level Albuquerque Center
11:26AM 31.4433 -104.3839 278° West 414 476 30,000  Level Albuquerque Center
11:27AM 31.4592 -104.5161 278° West 413 475 30,000 -60 Level Albuquerque Center
11:28AM 31.4736 -104.6489 277° West 413 475 29,900 -360 Descending Albuquerque Center
11:29AM 31.4881 -104.7861 277° West 420 483 29,300 -1,260 Descending Albuquerque Center
11:30AM 31.5014 -104.9192 277° West 421 484 27,400 -2,100 Descending Albuquerque Center
11:31AM 31.5172 -105.0786 277° West 417 480 25,000 -2,220 Descending Albuquerque Center
11:32AM 31.5308 -105.2108 277° West 415 478 22,900 -2,040 Descending Albuquerque Center
11:33AM 31.5428 -105.3392 276° West 407 468 20,800 -2,100 Descending Albuquerque Center
11:34AM 31.5544 -105.4914 275° West 388 447 18,500 -2,160 Descending Albuquerque Center
11:35AM 31.5653 -105.6058 276° West 385 443 16,600 -2,040 Descending Albuquerque Center
11:36AM 31.5767 -105.7003 278° West 378 435 15,000 -2,100 Descending Albuquerque Center
11:36AM 31.5806 -105.7342 278° West 372 428 14,300 -2,100 Descending Albuquerque Center
11:37AM 31.5883 -105.7972 278° West 360 414 13,300 -1,980 Descending Albuquerque Center
11:37AM 31.6081 -105.8439 296° West 355 409 12,300 -1,980 Descending Albuquerque Center
11:38AM 31.6339 -105.8931 302° West 324 373 11,300 -1,560 Descending Albuquerque Center
11:38AM 31.6528 -105.9322 300° West 318 366 10,700 -1,140 Descending Albuquerque Center
11:39AM 31.6722 -105.9731 299° West 266 306 10,200 -1,200 Descending Albuquerque Center
11:40AM 31.6903 -106.0050 304° West 265 305 9,500 -1,440 Descending Albuquerque Center
11:40AM 31.7103 -106.0511 297° West 244 281 8,600 -1,380 Descending Albuquerque Center
11:41AM 31.7242 -106.0761 303° West 252 290 8,100 -1,140 Descending Albuquerque Center
11:41AM 31.7408 -106.1133 298° West 238 274 7,600 -1,200 Descending Albuquerque Center